Morris, MN

1:56 AM CDT on May 25, 2017 (GMT -0500)
Morris Municipal

Weather History for KMOX - March, 2013

Change the Weather History Date:

Friday, March 8, 2013

  Actual Average Record
Temperature  
Mean Temperature 21 °F -  
Max Temperature 33 °F 27 °F 57 °F (2016)
Min Temperature 10 °F 10 °F -7 °F (2011)
Degree Days  
Heating Degree Days 44    
Moisture  
Dew Point 19 °F    
Average Humidity 85    
Maximum Humidity 93    
Minimum Humidity 69    
Precipitation  
Precipitation 0.36 in - - ()
Sea Level Pressure  
Sea Level Pressure 30.16 in    
Wind  
Wind Speed 9 mph (ESE)    
Max Wind Speed 16 mph    
Max Gust Speed -    
Visibility 4 miles    
Events      
Averages and records for this station are not official NWS values.
T = Trace of Precipitation, MM = Missing Value Source: NWS Daily Summary

Daily Weather History Graph

Daily Weather History Graph

Search for Another Location

Airport or City:

Trip Planner

Search our weather history database for the weather conditions in past years. The results will help you decide how hot, cold, wet, or windy it might be!

Date:

Astronomy

Mar. 08, 2013 Rise Set
Actual Time 6:49 AM CST 6:20 PM CST
Civil Twilight 6:19 AM CST 6:50 PM CST
Nautical Twilight 5:45 AM CST 7:24 PM CST
Astronomical Twilight 5:10 AM CST 7:59 PM CST
Moon 4:42 AM CST (3/8) 3:09 PM CST (3/8)
Length of Visible Light 12h 30m
Length of Day
11h 31m
Waning Crescent, 11% of the Moon is Illuminated
Mar 8
Waning Crescent
Mar 11
New
Mar 19
First Quarter
Mar 27
Full
Apr 2
Last Quarter

Hourly Weather History & Observations

Time (CST) Temp. Windchill Dew Point Humidity Pressure Visibility Wind Dir Wind Speed Gust Speed Precip Events Conditions
12:11 AM 17.6 °F 4.3 °F 15.8 °F 93% 30.21 in 10.0 mi SE 12.7 mph - N/A   Clear
12:31 AM 17.6 °F 3.7 °F 15.8 °F 93% 30.20 in 10.0 mi SE 13.8 mph - N/A   Clear
12:50 AM 17.6 °F 4.3 °F 15.8 °F 93% 30.21 in 7.0 mi SE 12.7 mph - N/A   Clear
1:11 AM 17.6 °F 5.0 °F 14.0 °F 86% 30.21 in 7.0 mi SE 11.5 mph - N/A   Clear
1:51 AM 15.8 °F 3.4 °F 12.2 °F 86% 30.21 in 7.0 mi SE 10.4 mph - N/A   Clear
2:10 AM 15.8 °F 2.7 °F 12.2 °F 86% 30.21 in 7.0 mi SE 11.5 mph - N/A   Clear
2:31 AM 15.8 °F 2.7 °F 12.2 °F 86% 30.21 in 7.0 mi SE 11.5 mph - N/A   Clear
2:50 AM 15.8 °F 4.2 °F 12.2 °F 86% 30.20 in 7.0 mi SE 9.2 mph - N/A   Clear
3:11 AM 15.8 °F 4.2 °F 12.2 °F 86% 30.21 in 5.0 mi SE 9.2 mph - N/A   Clear
3:31 AM 14.0 °F 2.9 °F 10.4 °F 86% 30.20 in 5.0 mi SE 8.1 mph - N/A   Clear
3:51 AM 14.0 °F 2.0 °F 10.4 °F 86% 30.20 in 5.0 mi SE 9.2 mph - N/A   Clear
4:11 AM 12.2 °F -0.2 °F 10.4 °F 92% 30.20 in 5.0 mi SE 9.2 mph - N/A   Clear
4:31 AM 12.2 °F -0.2 °F 10.4 °F 92% 30.20 in 5.0 mi SE 9.2 mph - N/A   Clear
4:51 AM 12.2 °F 0.7 °F 10.4 °F 92% 30.21 in 5.0 mi SE 8.1 mph - N/A   Clear
5:10 AM 12.2 °F 0.7 °F 10.4 °F 92% 30.21 in 4.0 mi SE 8.1 mph - N/A   Clear
5:31 AM 12.2 °F 0.7 °F 8.6 °F 85% 30.22 in 4.0 mi SE 8.1 mph - N/A   Clear
5:50 AM 10.4 °F -2.4 °F 8.6 °F 92% 30.22 in 4.0 mi SSE 9.2 mph - N/A   Clear
6:31 AM 10.4 °F -1.5 °F 8.6 °F 92% 30.22 in 4.0 mi SE 8.1 mph - N/A   Clear
6:51 AM 10.4 °F -1.5 °F 8.6 °F 92% 30.22 in 2.5 mi SE 8.1 mph - N/A   Clear
7:10 AM 12.2 °F 1.7 °F 10.4 °F 92% 30.21 in 2.5 mi SE 6.9 mph - N/A   Clear
7:31 AM 14.0 °F 3.9 °F 12.2 °F 93% 30.22 in 2.5 mi SSE 6.9 mph - N/A   Clear
7:51 AM 15.8 °F 6.1 °F 12.2 °F 86% 30.22 in 2.5 mi SE 6.9 mph - N/A   Clear
8:10 AM 15.8 °F 5.1 °F 12.2 °F 86% 30.22 in 3.0 mi SE 8.1 mph - N/A   Clear
8:31 AM 15.8 °F 5.1 °F 12.2 °F 86% 30.22 in 3.0 mi SSE 8.1 mph - N/A   Clear
8:50 AM 17.6 °F 7.3 °F 12.2 °F 79% 30.21 in 3.0 mi SE 8.1 mph - N/A   Clear
9:11 AM 17.6 °F 7.3 °F 14.0 °F 86% 30.20 in 3.0 mi SE 8.1 mph - N/A   Clear
9:31 AM 19.4 °F 11.5 °F 15.8 °F 86% 30.22 in 3.0 mi SE 5.8 mph - N/A   Clear
9:51 AM 19.4 °F 14.3 °F 15.8 °F 86% 30.22 in 3.0 mi SSE 3.5 mph - N/A   Haze
10:10 AM 21.2 °F 16.4 °F 15.8 °F 80% 30.22 in 3.0 mi SE 3.5 mph - N/A   Haze
10:31 AM 23.0 °F 17.0 °F 15.8 °F 74% 30.22 in 3.0 mi SE 4.6 mph - N/A   Haze
10:50 AM 23.0 °F 15.8 °F 17.6 °F 80% 30.21 in 3.0 mi SE 5.8 mph - N/A   Haze
11:11 AM 23.0 °F 15.8 °F 17.6 °F 80% 30.21 in 3.0 mi ESE 5.8 mph - N/A   Haze
11:31 AM 24.8 °F 20.5 °F 17.6 °F 74% 30.22 in 3.0 mi ESE 3.5 mph - N/A   Haze
11:51 AM 24.8 °F 20.5 °F 19.4 °F 80% 30.21 in 3.0 mi East 3.5 mph - N/A   Haze
12:11 PM 26.6 °F 22.6 °F 19.4 °F 74% 30.20 in 3.0 mi ESE 3.5 mph - N/A   Haze
12:30 PM 26.6 °F 19.1 °F 19.4 °F 74% 30.19 in 3.0 mi East 6.9 mph - N/A   Haze
12:51 PM 28.4 °F 22.2 °F 21.2 °F 74% 30.19 in 3.0 mi ESE 5.8 mph - N/A   Haze
1:10 PM 28.4 °F 23.3 °F 21.2 °F 74% 30.19 in 3.0 mi ESE 4.6 mph - N/A   Haze
1:31 PM 30.2 °F 24.3 °F 23.0 °F 75% 30.18 in 4.0 mi ESE 5.8 mph - N/A   Haze
1:50 PM 32.0 °F 27.5 °F 23.0 °F 69% 30.18 in 4.0 mi ESE 4.6 mph - N/A   Haze
2:11 PM 30.2 °F 25.4 °F 23.0 °F 75% 30.18 in 4.0 mi ESE 4.6 mph - N/A   Haze
2:30 PM 30.2 °F 24.3 °F 23.0 °F 75% 30.18 in 4.0 mi East 5.8 mph - N/A   Haze
2:51 PM 30.2 °F 23.4 °F 24.8 °F 80% 30.17 in 4.0 mi East 6.9 mph - N/A   Haze
3:10 PM 30.2 °F 24.3 °F 24.8 °F 80% 30.16 in 5.0 mi East 5.8 mph - N/A   Haze
3:31 PM 30.2 °F 24.3 °F 24.8 °F 80% 30.16 in 5.0 mi ENE 5.8 mph - N/A   Haze
3:50 PM 30.2 °F 23.4 °F 24.8 °F 80% 30.15 in 4.0 mi ENE 6.9 mph - N/A   Haze
4:11 PM 30.2 °F 21.3 °F 24.8 °F 80% 30.14 in 4.0 mi ENE 10.4 mph - N/A   Haze
4:31 PM 30.2 °F 22.6 °F 24.8 °F 80% 30.14 in 4.0 mi East 8.1 mph - N/A   Haze
4:50 PM 30.2 °F 20.8 °F 24.8 °F 80% 30.12 in 4.0 mi East 11.5 mph - N/A   Haze
5:10 PM 30.2 °F 20.2 °F 24.8 °F 80% 30.13 in 4.0 mi East 12.7 mph - N/A   Haze
5:30 PM 28.4 °F 18.5 °F 24.8 °F 86% 30.12 in 4.0 mi East 11.5 mph - N/A   Haze
5:51 PM 28.4 °F 19.1 °F 23.0 °F 80% 30.11 in 4.0 mi East 10.4 mph - N/A   Haze
6:10 PM 28.4 °F 18.5 °F 23.0 °F 80% 30.11 in 4.0 mi East 11.5 mph - N/A   Haze
6:31 PM 26.6 °F 15.7 °F 23.0 °F 86% 30.10 in 4.0 mi ESE 12.7 mph - N/A   Clear
6:50 PM 26.6 °F 16.2 °F 23.0 °F 86% 30.10 in 5.0 mi East 11.5 mph - N/A   Clear
7:11 PM 26.6 °F 15.2 °F 23.0 °F 86% 30.09 in 5.0 mi East 13.8 mph - N/A   Clear
7:30 PM 26.6 °F 16.2 °F 23.0 °F 86% 30.08 in 5.0 mi East 11.5 mph - N/A   Clear
7:51 PM 28.4 °F 19.7 °F 24.8 °F 86% 30.08 in 5.0 mi East 9.2 mph - N/A   Clear
8:10 PM 28.4 °F 21.2 °F 24.8 °F 86% 30.08 in 5.0 mi East 6.9 mph - N/A   Scattered Clouds
8:31 PM 28.4 °F 21.2 °F 24.8 °F 86% 30.09 in 5.0 mi East 6.9 mph - N/A   Haze
8:50 PM 28.4 °F 19.1 °F 24.8 °F 86% 30.07 in 5.0 mi East 10.4 mph - N/A   Overcast
9:11 PM 30.2 °F 19.8 °F 26.6 °F 86% 30.06 in 4.0 mi East 13.8 mph - N/A   Overcast
9:31 PM 30.2 °F 18.9 °F 26.6 °F 86% 30.04 in 3.0 mi East 16.1 mph - 0.03 in   Overcast
9:50 PM 30.2 °F 19.3 °F 28.4 °F 93% 30.03 in 3.0 mi ESE 15.0 mph - 0.07 in   Overcast
10:11 PM 30.2 °F 21.3 °F 28.4 °F 93% 30.03 in 2.5 mi ESE 10.4 mph - 0.04 in   Overcast
10:50 PM 32.0 °F 25.6 °F 30.2 °F 93% 30.00 in 2.5 mi ESE 6.9 mph - 0.17 in   Overcast
11:10 PM 32.0 °F 26.4 °F 30.2 °F 93% 29.99 in 2.0 mi ESE 5.8 mph - 0.05 in   Overcast
11:31 PM 32.0 °F 25.6 °F 30.2 °F 93% 29.98 in 3.0 mi ESE 6.9 mph - 0.09 in   Overcast
11:50 PM 33.8 °F 29.6 °F 30.2 °F 87% 29.97 in 2.5 mi ESE 4.6 mph - 0.12 in   Overcast